Time;durP1;ratioP1;P1;durP2;ratioP2;P2;SDS_P1;SDS_P2;PMS_P1;PMS_P2;Temp;Humidity;BMP_temperature;BMP_pressure;BME280_temperature;BME280_humidity;BME280_pressure;Samples;Min_cycle;Max_cycle;Signal;HPM_P1;HPM_P2
2022/07/29 00:01:34;;;;;;;4.88;1.35;;;15.00;99.90;;;;;;5037618;28;20041;-68
2022/07/29 00:04:00;;;;;;;3.42;1.50;;;15.00;99.90;;;;;;5054417;28;20049;-67
2022/07/29 00:06:26;;;;;;;4.28;1.35;;;15.10;99.90;;;;;;5061655;28;20484;-68
2022/07/29 00:08:51;;;;;;;3.88;1.42;;;15.10;99.90;;;;;;5072552;28;20374;-68
2022/07/29 00:11:17;;;;;;;3.80;1.30;;;15.10;99.90;;;;;;5072689;28;20067;-68
2022/07/29 00:13:42;;;;;;;3.28;1.40;;;15.10;99.90;;;;;;5055322;28;20091;-68
2022/07/29 00:16:08;;;;;;;4.20;1.52;;;15.10;99.90;;;;;;5074058;28;20044;-68
2022/07/29 00:18:34;;;;;;;4.80;1.70;;;15.10;99.90;;;;;;5073999;28;20040;-67
2022/07/29 00:20:59;;;;;;;4.32;1.55;;;15.10;99.90;;;;;;5055490;28;20033;-67
2022/07/29 00:23:25;;;;;;;4.47;1.42;;;15.10;99.90;;;;;;5037261;28;20448;-68
2022/07/29 00:25:50;;;;;;;3.53;1.40;;;15.10;99.90;;;;;;5052208;28;20036;-68
2022/07/29 00:28:16;;;;;;;4.65;1.60;;;15.00;99.90;;;;;;5035015;28;20037;-67
2022/07/29 00:30:43;;;;;;;2.58;1.40;;;15.10;99.90;;;;;;5037304;28;20049;-67
2022/07/29 00:33:09;;;;;;;4.88;1.70;;;15.00;99.90;;;;;;5027602;28;20056;-67
2022/07/29 00:35:43;;;;;;;4.78;1.60;;;15.00;99.90;;;;;;5020326;28;20037;-68
2022/07/29 00:38:13;;;;;;;5.63;1.80;;;15.10;99.90;;;;;;5053687;28;20044;-67
2022/07/29 00:40:39;;;;;;;4.47;2.28;;;15.10;99.90;;;;;;5036960;28;20033;-67
2022/07/29 00:43:05;;;;;;;5.72;1.77;;;15.00;99.90;;;;;;5053651;28;20448;-68
2022/07/29 00:45:31;;;;;;;4.25;1.70;;;15.10;99.90;;;;;;5064442;28;20052;-67
2022/07/29 00:47:57;;;;;;;4.32;1.77;;;15.10;99.90;;;;;;5048860;28;20045;-67
2022/07/29 00:50:23;;;;;;;4.97;1.83;;;15.10;99.90;;;;;;5040945;28;20048;-68
2022/07/29 00:52:49;;;;;;;4.68;1.77;;;15.10;99.90;;;;;;5035669;28;20051;-67
2022/07/29 00:55:15;;;;;;;6.20;2.00;;;15.10;99.90;;;;;;5056340;28;20608;-68
2022/07/29 00:57:43;;;;;;;4.22;1.70;;;15.00;99.90;;;;;;5057945;28;20029;-67
2022/07/29 01:00:12;;;;;;;5.00;2.05;;;15.00;99.90;;;;;;5052019;28;20046;-67
2022/07/29 01:02:37;;;;;;;5.38;2.22;;;14.90;99.90;;;;;;5035441;28;20045;-68
2022/07/29 01:05:05;;;;;;;3.53;1.67;;;15.00;99.90;;;;;;5037511;28;20048;-67
2022/07/29 01:07:34;;;;;;;5.57;2.03;;;15.00;99.90;;;;;;5052886;28;20101;-68
2022/07/29 01:10:01;;;;;;;5.07;1.95;;;14.90;99.90;;;;;;5045454;28;20045;-68
2022/07/29 01:12:28;;;;;;;5.10;1.73;;;14.90;99.90;;;;;;5051417;28;20586;-68
2022/07/29 01:14:55;;;;;;;4.53;1.95;;;15.00;99.90;;;;;;5035522;28;20409;-68
2022/07/29 01:17:23;;;;;;;4.70;1.63;;;15.00;99.90;;;;;;5050824;28;20037;-68
2022/07/29 01:20:10;;;;;;;4.43;1.48;;;14.90;99.90;;;;;;5032675;28;20508;-67
2022/07/29 01:22:53;;;;;;;3.55;1.40;;;15.00;99.90;;;;;;5052401;28;20481;-67
2022/07/29 01:25:48;;;;;;;4.90;1.80;;;15.00;99.90;;;;;;5035273;28;20044;-67
2022/07/29 01:28:39;;;;;;;4.85;1.65;;;15.00;99.90;;;;;;5052986;28;20064;-67
2022/07/29 01:31:09;;;;;;;2.88;1.50;;;15.00;99.90;;;;;;5052599;28;20037;-68
2022/07/29 01:33:49;;;;;;;4.72;1.30;;;15.00;99.90;;;;;;5051956;28;20497;-67
2022/07/29 01:36:22;;;;;;;5.13;1.50;;;15.00;99.90;;;;;;5043498;28;20037;-67
2022/07/29 01:38:58;;;;;;;3.85;1.65;;;15.10;99.90;;;;;;5049528;28;20069;-68
2022/07/29 01:41:26;;;;;;;5.53;1.58;;;15.10;99.90;;;;;;5049040;28;20124;-67
2022/07/29 01:43:56;;;;;;;3.55;1.30;;;15.10;99.90;;;;;;5051929;28;20493;-68
2022/07/29 01:46:36;;;;;;;3.80;1.33;;;15.10;99.90;;;;;;5035738;28;20041;-67
2022/07/29 01:49:11;;;;;;;3.97;1.30;;;15.10;99.90;;;;;;5050410;28;20493;-68
2022/07/29 01:51:45;;;;;;;6.50;1.70;;;15.10;99.90;;;;;;5052127;28;20501;-67
2022/07/29 01:54:20;;;;;;;4.32;1.42;;;15.00;99.90;;;;;;5049758;28;20535;-67
2022/07/29 01:56:50;;;;;;;3.63;1.30;;;15.10;99.90;;;;;;5035978;28;20063;-67
2022/07/29 01:59:18;;;;;;;3.58;1.42;;;15.10;99.90;;;;;;5050891;28;20045;-68
2022/07/29 02:01:46;;;;;;;6.43;1.40;;;15.20;99.90;;;;;;5035397;28;20044;-68
2022/07/29 02:04:14;;;;;;;6.40;1.48;;;15.20;99.90;;;;;;5033920;28;20044;-68
2022/07/29 02:06:42;;;;;;;4.03;1.30;;;15.20;99.90;;;;;;5052015;28;20170;-67
2022/07/29 02:09:09;;;;;;;3.70;1.30;;;15.10;99.90;;;;;;5034721;28;20047;-67
2022/07/29 02:11:37;;;;;;;4.57;1.40;;;15.10;99.90;;;;;;5035024;28;20048;-67
2022/07/29 02:14:04;;;;;;;6.85;1.60;;;15.20;99.90;;;;;;5041710;28;20370;-67
2022/07/29 02:16:31;;;;;;;4.03;1.35;;;15.10;99.90;;;;;;5051885;28;20049;-67
2022/07/29 02:19:00;;;;;;;5.95;1.70;;;15.10;99.90;;;;;;5051074;28;20033;-68
2022/07/29 02:21:27;;;;;;;5.35;1.67;;;15.10;99.90;;;;;;5051833;28;20474;-68
2022/07/29 02:23:55;;;;;;;3.65;1.30;;;15.10;99.90;;;;;;5049120;28;20044;-68
2022/07/29 02:26:23;;;;;;;2.92;1.40;;;15.10;99.90;;;;;;5035528;28;20037;-68
2022/07/29 02:28:53;;;;;;;5.63;1.55;;;15.10;99.90;;;;;;5051197;28;20055;-68
2022/07/29 02:31:24;;;;;;;6.55;1.70;;;15.10;99.90;;;;;;5052148;28;20091;-68
2022/07/29 02:33:51;;;;;;;6.68;1.70;;;15.10;99.90;;;;;;5049676;28;20163;-68
2022/07/29 02:36:20;;;;;;;4.82;1.58;;;15.10;99.90;;;;;;5051007;28;20052;-67
2022/07/29 02:38:50;;;;;;;4.72;1.50;;;15.10;99.90;;;;;;5049562;28;20063;-68
2022/07/29 02:41:30;;;;;;;5.80;1.45;;;15.00;99.90;;;;;;5035170;28;20033;-68
2022/07/29 02:44:01;;;;;;;5.50;1.80;;;15.10;99.90;;;;;;5034024;28;20044;-68
2022/07/29 02:46:34;;;;;;;7.00;1.70;;;15.10;99.90;;;;;;5047259;28;20040;-68
2022/07/29 02:49:09;;;;;;;2.58;1.40;;;15.10;99.90;;;;;;5045378;28;20052;-68
2022/07/29 02:51:59;;;;;;;2.13;1.30;;;15.10;99.90;;;;;;5034095;28;20073;-67
2022/07/29 02:54:38;;;;;;;5.25;1.52;;;15.10;99.90;;;;;;5049359;28;20041;-68
2022/07/29 02:57:17;;;;;;;4.70;1.58;;;15.10;99.90;;;;;;5029571;28;20034;-68
2022/07/29 02:59:47;;;;;;;3.42;1.38;;;15.00;99.90;;;;;;5032254;28;20059;-67
2022/07/29 03:02:14;;;;;;;3.55;1.48;;;15.00;99.90;;;;;;5014778;28;20049;-67
2022/07/29 03:04:41;;;;;;;4.75;1.58;;;15.00;99.90;;;;;;5058341;28;20048;-68
2022/07/29 03:07:08;;;;;;;5.13;1.40;;;15.10;99.90;;;;;;5050531;28;20045;-67
2022/07/29 03:09:34;;;;;;;4.93;1.40;;;15.00;99.90;;;;;;5049091;28;20458;-68
2022/07/29 03:12:01;;;;;;;4.97;1.50;;;15.10;99.90;;;;;;5034347;28;20115;-67
2022/07/29 03:14:27;;;;;;;4.05;1.50;;;15.00;99.90;;;;;;5055062;28;20045;-68
2022/07/29 03:16:53;;;;;;;3.72;1.40;;;15.10;99.90;;;;;;5050032;28;20030;-68
2022/07/29 03:19:20;;;;;;;3.42;1.40;;;15.10;99.90;;;;;;5024892;28;20032;-68
2022/07/29 03:21:45;;;;;;;4.53;1.50;;;15.00;99.90;;;;;;5038991;28;20060;-67
2022/07/29 03:24:24;;;;;;;3.70;1.40;;;15.10;99.90;;;;;;5037443;28;20037;-67
2022/07/29 03:26:50;;;;;;;4.93;1.40;;;15.10;99.90;;;;;;5055132;28;20048;-68
2022/07/29 03:29:15;;;;;;;4.85;1.77;;;15.10;99.90;;;;;;5037237;28;20041;-68
2022/07/29 03:31:41;;;;;;;5.00;1.75;;;15.10;99.90;;;;;;5053973;28;20064;-68
2022/07/29 03:34:07;;;;;;;4.63;1.60;;;15.10;99.90;;;;;;5054664;28;20048;-68
2022/07/29 03:36:32;;;;;;;4.90;1.48;;;15.10;99.90;;;;;;5038133;28;20036;-67
2022/07/29 03:38:58;;;;;;;5.68;1.40;;;15.10;99.90;;;;;;5052466;28;20045;-68
2022/07/29 03:41:25;;;;;;;3.10;1.50;;;15.00;99.90;;;;;;5038101;28;20485;-68
2022/07/29 03:43:53;;;;;;;3.65;1.75;;;15.10;99.90;;;;;;5037332;28;20049;-68
2022/07/29 03:46:22;;;;;;;6.03;1.77;;;15.10;99.90;;;;;;5054936;28;20059;-68
2022/07/29 03:48:52;;;;;;;4.30;1.60;;;15.00;99.90;;;;;;5023580;28;20478;-68
2022/07/29 03:51:18;;;;;;;3.20;1.20;;;15.10;99.90;;;;;;5051205;28;20536;-68
2022/07/29 03:53:43;;;;;;;4.70;1.60;;;15.00;99.90;;;;;;5034560;28;20041;-68
2022/07/29 03:56:10;;;;;;;4.78;1.52;;;14.90;99.90;;;;;;5055102;28;20040;-68
2022/07/29 03:58:36;;;;;;;4.70;1.45;;;15.00;99.90;;;;;;5051514;28;20489;-68
2022/07/29 04:01:03;;;;;;;4.43;1.52;;;15.00;99.90;;;;;;5038010;28;20055;-67
2022/07/29 04:03:29;;;;;;;5.15;1.65;;;15.00;99.90;;;;;;5036554;28;20041;-68
2022/07/29 04:06:05;;;;;;;3.95;1.38;;;14.90;99.90;;;;;;5054173;28;20041;-68
2022/07/29 04:08:31;;;;;;;4.60;1.63;;;14.90;99.90;;;;;;5035752;28;20040;-68
2022/07/29 04:10:57;;;;;;;4.80;1.50;;;15.00;99.90;;;;;;5062754;28;20044;-68
2022/07/29 04:13:22;;;;;;;7.72;1.65;;;15.00;99.90;;;;;;5068569;28;20059;-67
2022/07/29 04:15:48;;;;;;;4.55;1.50;;;15.10;99.90;;;;;;5064900;28;20048;-67
2022/07/29 04:18:14;;;;;;;6.50;1.63;;;15.00;99.90;;;;;;5067357;28;20466;-67
2022/07/29 04:20:39;;;;;;;3.85;1.50;;;15.00;99.90;;;;;;5061633;28;20032;-67
2022/07/29 04:23:05;;;;;;;7.75;1.75;;;15.00;99.90;;;;;;5036981;28;20436;-67
2022/07/29 04:25:30;;;;;;;3.55;1.42;;;15.00;99.90;;;;;;5037443;28;20039;-67
2022/07/29 04:28:02;;;;;;;5.88;1.60;;;15.00;99.90;;;;;;5036510;28;20465;-67
2022/07/29 04:30:31;;;;;;;4.72;1.55;;;15.10;99.90;;;;;;5038061;28;20079;-67
2022/07/29 04:32:57;;;;;;;7.85;1.88;;;15.10;99.90;;;;;;5052778;28;20051;-68
2022/07/29 04:35:22;;;;;;;6.40;1.80;;;15.00;99.90;;;;;;5053804;28;20045;-67
2022/07/29 04:37:48;;;;;;;4.05;1.35;;;15.00;99.90;;;;;;5052706;28;20470;-68
2022/07/29 04:40:14;;;;;;;5.05;1.75;;;15.10;99.90;;;;;;5053602;28;20033;-67
2022/07/29 04:42:39;;;;;;;4.57;1.55;;;15.00;99.90;;;;;;5035741;28;20029;-67
2022/07/29 04:45:05;;;;;;;4.13;1.50;;;15.00;99.90;;;;;;5054230;28;20037;-68
2022/07/29 04:47:31;;;;;;;4.38;1.40;;;15.10;99.90;;;;;;5030699;28;20068;-68
2022/07/29 04:49:57;;;;;;;4.43;1.60;;;15.20;99.90;;;;;;5017251;28;20079;-68
2022/07/29 04:52:23;;;;;;;3.83;1.50;;;15.10;99.90;;;;;;5037466;28;20040;-67
2022/07/29 04:54:48;;;;;;;6.45;1.70;;;15.10;99.90;;;;;;5051112;28;20508;-67
2022/07/29 04:57:14;;;;;;;4.28;1.40;;;15.10;99.90;;;;;;5035706;28;20036;-68
2022/07/29 04:59:40;;;;;;;4.38;1.50;;;15.10;99.90;;;;;;5036469;28;20041;-67
2022/07/29 05:02:05;;;;;;;4.82;1.55;;;15.20;99.90;;;;;;5030669;28;20563;-67
2022/07/29 05:04:31;;;;;;;3.38;1.60;;;15.20;99.90;;;;;;5035330;28;20041;-67
2022/07/29 05:06:56;;;;;;;4.68;1.75;;;15.10;99.90;;;;;;5035281;28;20083;-68
2022/07/29 05:09:22;;;;;;;4.72;1.80;;;15.10;99.90;;;;;;5053024;28;20037;-68
2022/07/29 05:11:47;;;;;;;4.15;1.60;;;15.10;99.90;;;;;;5052038;28;20485;-68
2022/07/29 05:14:13;;;;;;;6.13;1.40;;;15.10;99.90;;;;;;5036087;28;20124;-68
2022/07/29 05:16:43;;;;;;;5.22;1.90;;;15.20;99.90;;;;;;5036211;28;20037;-67
2022/07/29 05:19:08;;;;;;;3.08;1.60;;;15.10;99.90;;;;;;5052266;28;20508;-68
2022/07/29 05:21:34;;;;;;;3.47;1.50;;;15.10;99.90;;;;;;5072737;28;20121;-68
2022/07/29 05:24:00;;;;;;;5.80;1.75;;;15.20;99.90;;;;;;5048401;28;20404;-68
2022/07/29 05:26:26;;;;;;;6.00;1.90;;;15.30;99.90;;;;;;5070425;28;20047;-67
2022/07/29 05:28:51;;;;;;;5.75;1.70;;;15.40;99.90;;;;;;5055992;28;20032;-68
2022/07/29 05:31:17;;;;;;;5.32;1.83;;;15.30;99.90;;;;;;5043517;28;20417;-68
2022/07/29 05:33:43;;;;;;;6.25;1.80;;;15.30;99.90;;;;;;5050286;28;20048;-68
2022/07/29 05:36:08;;;;;;;4.60;1.50;;;15.30;99.90;;;;;;5080021;28;20074;-68
2022/07/29 05:38:35;;;;;;;5.47;1.65;;;15.30;99.90;;;;;;5067031;28;20028;-68
2022/07/29 05:41:01;;;;;;;6.72;1.67;;;15.40;99.90;;;;;;5078071;28;20044;-68
2022/07/29 05:43:27;;;;;;;7.75;1.85;;;15.30;99.90;;;;;;5051340;28;20037;-68
2022/07/29 05:45:53;;;;;;;4.55;1.50;;;15.30;99.90;;;;;;5035534;28;20549;-68
2022/07/29 05:48:18;;;;;;;4.78;1.60;;;15.30;99.90;;;;;;5050377;28;20127;-68
2022/07/29 05:50:44;;;;;;;4.30;1.80;;;15.30;99.90;;;;;;5052067;28;20044;-68
2022/07/29 05:53:09;;;;;;;7.97;2.00;;;15.30;99.90;;;;;;5051952;28;20125;-68
2022/07/29 05:55:35;;;;;;;5.15;1.70;;;15.30;99.90;;;;;;5035868;28;20033;-68
2022/07/29 05:58:00;;;;;;;5.47;1.63;;;15.40;99.90;;;;;;5050230;28;20032;-68
2022/07/29 06:00:26;;;;;;;5.40;1.80;;;15.40;99.90;;;;;;5041594;28;20068;-67
2022/07/29 06:02:52;;;;;;;2.85;1.52;;;15.40;99.90;;;;;;5015812;28;20124;-68
2022/07/29 06:05:17;;;;;;;4.78;1.75;;;15.40;99.90;;;;;;5047351;28;20037;-68
2022/07/29 06:07:43;;;;;;;6.38;2.30;;;15.50;99.90;;;;;;5051763;28;20037;-68
2022/07/29 06:10:10;;;;;;;7.00;1.75;;;15.50;99.90;;;;;;5051619;28;20047;-68
2022/07/29 06:12:36;;;;;;;4.38;2.10;;;15.50;99.90;;;;;;5051729;28;20057;-68
2022/07/29 06:15:01;;;;;;;5.63;1.60;;;15.50;99.90;;;;;;5051081;28;20067;-68
2022/07/29 06:17:27;;;;;;;4.97;1.75;;;15.50;99.90;;;;;;5034032;28;20489;-68
2022/07/29 06:19:53;;;;;;;5.22;1.73;;;15.60;99.90;;;;;;5051558;28;20463;-68
2022/07/29 06:22:18;;;;;;;4.75;1.92;;;15.60;99.90;;;;;;5051849;28;20033;-68
2022/07/29 06:24:44;;;;;;;5.35;1.92;;;15.60;99.90;;;;;;5049832;28;20408;-68
2022/07/29 06:27:10;;;;;;;6.60;2.63;;;15.60;99.90;;;;;;5032358;28;20049;-68
2022/07/29 06:29:36;;;;;;;5.50;2.13;;;15.70;99.90;;;;;;5051516;28;20044;-68
2022/07/29 06:32:02;;;;;;;7.25;2.05;;;15.80;99.90;;;;;;5043570;28;20036;-68
2022/07/29 06:34:27;;;;;;;5.30;2.25;;;15.80;99.90;;;;;;5045099;28;20048;-69
2022/07/29 06:36:53;;;;;;;7.75;2.50;;;15.80;99.90;;;;;;5051944;28;20037;-68
2022/07/29 06:39:19;;;;;;;6.40;2.17;;;15.80;99.90;;;;;;5050770;28;20125;-68
2022/07/29 06:41:49;;;;;;;6.35;2.05;;;15.80;99.90;;;;;;5035023;28;20397;-68
2022/07/29 06:44:15;;;;;;;4.25;1.90;;;15.90;99.90;;;;;;5050709;28;20123;-68
2022/07/29 06:46:41;;;;;;;6.30;2.15;;;15.90;99.90;;;;;;5037060;28;20135;-68
2022/07/29 06:49:07;;;;;;;8.05;2.10;;;15.90;99.90;;;;;;5037946;28;20041;-68
2022/07/29 06:51:33;;;;;;;6.10;2.28;;;16.00;99.90;;;;;;5038754;28;20382;-68
2022/07/29 06:53:59;;;;;;;4.70;2.20;;;15.90;99.90;;;;;;5052830;28;20521;-68
2022/07/29 06:56:24;;;;;;;7.57;2.47;;;16.00;99.90;;;;;;5037388;28;20033;-68
2022/07/29 06:58:50;;;;;;;5.60;2.00;;;15.90;99.90;;;;;;5039109;28;20047;-68
2022/07/29 07:01:16;;;;;;;4.72;1.95;;;15.90;99.90;;;;;;5037978;28;20485;-68
2022/07/29 07:03:41;;;;;;;5.20;2.42;;;16.00;99.90;;;;;;5053766;28;20041;-68
2022/07/29 07:06:07;;;;;;;5.38;2.00;;;16.00;99.90;;;;;;5055533;28;20037;-68
2022/07/29 07:08:33;;;;;;;5.45;2.08;;;15.90;99.90;;;;;;5037799;28;20460;-68
2022/07/29 07:10:59;;;;;;;6.57;2.10;;;15.90;99.90;;;;;;5055276;28;20076;-68
2022/07/29 07:13:25;;;;;;;8.52;2.35;;;16.00;99.90;;;;;;5054187;28;20045;-68
2022/07/29 07:15:51;;;;;;;5.28;2.10;;;15.90;99.90;;;;;;5055193;28;20075;-68
2022/07/29 07:18:18;;;;;;;5.85;2.00;;;16.00;99.90;;;;;;5053510;28;20044;-68
2022/07/29 07:20:44;;;;;;;7.22;2.05;;;16.00;99.90;;;;;;5038482;28;20036;-68
2022/07/29 07:23:10;;;;;;;6.93;2.05;;;16.00;99.90;;;;;;5037924;28;20144;-68
2022/07/29 07:25:36;;;;;;;5.03;1.80;;;16.10;99.90;;;;;;5055183;28;20500;-68
2022/07/29 07:28:03;;;;;;;5.82;2.10;;;16.10;99.90;;;;;;5021221;28;20071;-68
2022/07/29 07:30:28;;;;;;;6.13;2.25;;;16.20;99.90;;;;;;5054233;28;20033;-68
2022/07/29 07:32:55;;;;;;;5.28;2.03;;;16.20;99.90;;;;;;5037085;28;20086;-68
2022/07/29 07:35:20;;;;;;;6.72;2.15;;;16.20;99.90;;;;;;5037584;28;20087;-68
2022/07/29 07:37:46;;;;;;;6.57;2.20;;;16.20;99.90;;;;;;5053954;28;20061;-68
2022/07/29 07:40:13;;;;;;;6.45;1.83;;;16.20;99.90;;;;;;5054715;28;20075;-68
2022/07/29 07:42:39;;;;;;;9.80;2.35;;;16.20;99.90;;;;;;5037099;28;20044;-68
2022/07/29 07:45:06;;;;;;;4.97;2.10;;;16.40;99.90;;;;;;5049082;28;20048;-68
2022/07/29 07:47:32;;;;;;;5.57;2.08;;;16.30;99.90;;;;;;5024007;28;20036;-68
2022/07/29 07:49:57;;;;;;;7.97;2.30;;;16.30;99.90;;;;;;5053529;28;20536;-68
2022/07/29 07:52:23;;;;;;;7.10;2.33;;;16.40;99.90;;;;;;5054464;28;20041;-68
2022/07/29 07:54:49;;;;;;;6.38;2.20;;;16.50;99.90;;;;;;5053557;28;20106;-68
2022/07/29 07:57:15;;;;;;;5.03;2.00;;;16.40;99.90;;;;;;5053580;28;20060;-68
2022/07/29 07:59:41;;;;;;;6.85;2.00;;;16.50;99.90;;;;;;5049552;28;20033;-68
2022/07/29 08:02:08;;;;;;;7.15;2.33;;;16.60;99.90;;;;;;5043691;28;20115;-68
2022/07/29 08:04:33;;;;;;;6.13;2.33;;;16.60;99.90;;;;;;5039401;28;20044;-68
2022/07/29 08:06:59;;;;;;;9.15;2.67;;;16.70;99.90;;;;;;5035675;28;20486;-68
2022/07/29 08:09:26;;;;;;;6.38;2.17;;;16.70;99.90;;;;;;5053284;28;20049;-68
2022/07/29 08:11:52;;;;;;;5.90;2.53;;;16.80;99.90;;;;;;5035551;28;20056;-68
2022/07/29 08:14:18;;;;;;;4.50;2.30;;;16.80;99.90;;;;;;5035493;28;20053;-68
2022/07/29 08:16:44;;;;;;;6.53;2.00;;;16.80;99.90;;;;;;5056404;28;20071;-68
2022/07/29 08:19:10;;;;;;;7.50;2.60;;;16.90;99.90;;;;;;5056664;28;20072;-68
2022/07/29 08:21:35;;;;;;;5.97;2.10;;;16.90;99.90;;;;;;5054038;28;20040;-68
2022/07/29 08:26:45;;;;;;;7.57;2.47;;;17.10;99.90;;;;;;5072332;28;20048;-67
2022/07/29 08:29:12;;;;;;;4.28;2.00;;;17.10;99.90;;;;;;5055458;28;20082;-68
2022/07/29 08:31:38;;;;;;;5.38;2.13;;;17.20;99.90;;;;;;5053817;28;20048;-67
2022/07/29 08:34:04;;;;;;;5.82;1.85;;;17.30;99.90;;;;;;5051199;28;20152;-68
2022/07/29 08:36:31;;;;;;;8.23;2.75;;;17.40;99.90;;;;;;5045344;28;20048;-68
2022/07/29 08:38:57;;;;;;;4.72;2.20;;;17.50;99.90;;;;;;5062434;28;20120;-68
2022/07/29 08:41:23;;;;;;;7.70;2.20;;;17.60;99.90;;;;;;5066044;28;20040;-68
2022/07/29 08:43:50;;;;;;;5.45;2.25;;;17.60;99.90;;;;;;5023429;28;20090;-68
2022/07/29 08:46:16;;;;;;;5.97;1.92;;;17.50;99.90;;;;;;5035973;28;20091;-68
2022/07/29 08:48:43;;;;;;;6.57;2.55;;;17.60;99.90;;;;;;5048487;28;20041;-68
2022/07/29 08:51:13;;;;;;;6.18;2.50;;;17.60;99.90;;;;;;5036457;28;20047;-68
2022/07/29 08:53:42;;;;;;;7.00;2.13;;;17.70;99.90;;;;;;5064252;28;20125;-68
2022/07/29 08:56:11;;;;;;;6.72;2.10;;;17.60;99.90;;;;;;5053184;28;20390;-67
2022/07/29 08:58:37;;;;;;;6.93;2.60;;;17.80;99.90;;;;;;5035530;28;20122;-68
2022/07/29 09:01:03;;;;;;;6.22;2.28;;;17.80;99.90;;;;;;5063486;28;20076;-67
2022/07/29 09:03:35;;;;;;;6.20;2.22;;;17.70;99.90;;;;;;5051346;28;20442;-68
2022/07/29 09:06:02;;;;;;;6.95;2.20;;;17.70;99.90;;;;;;5053462;28;20124;-68
2022/07/29 09:08:28;;;;;;;8.57;2.38;;;17.80;99.90;;;;;;5040917;28;20037;-68
2022/07/29 09:10:55;;;;;;;7.28;2.65;;;18.00;99.90;;;;;;5036459;28;20032;-68
2022/07/29 09:13:22;;;;;;;6.85;2.58;;;18.10;99.90;;;;;;5034139;28;20052;-68
2022/07/29 09:15:48;;;;;;;5.07;2.40;;;18.10;99.90;;;;;;5034707;28;20090;-68
2022/07/29 09:18:35;;;;;;;4.82;2.30;;;18.10;99.90;;;;;;5056107;28;20166;-68
2022/07/29 09:24:12;;;;;;;9.13;2.03;;;18.20;99.90;;;;;;5056436;28;20045;-68
2022/07/29 09:26:43;;;;;;;5.80;2.10;;;18.20;99.90;;;;;;5055862;28;20029;-67
2022/07/29 09:29:10;;;;;;;4.87;1.87;;;18.20;99.90;;;;;;5044629;28;20511;-67
2022/07/29 09:31:38;;;;;;;8.43;2.75;;;18.20;99.90;;;;;;5045030;28;20640;-67
2022/07/29 09:34:06;;;;;;;9.40;2.70;;;18.30;99.90;;;;;;5041871;28;20497;-67
2022/07/29 09:36:42;;;;;;;9.93;3.15;;;18.50;99.90;;;;;;5036338;28;20062;-68
2022/07/29 09:39:07;;;;;;;8.13;2.88;;;18.30;99.90;;;;;;5070969;28;20374;-68
2022/07/29 09:41:49;;;;;;;7.47;2.40;;;18.20;99.90;;;;;;5058113;28;20082;-68
2022/07/29 09:44:15;;;;;;;8.63;2.80;;;18.30;99.90;;;;;;5047509;28;20132;-68
2022/07/29 09:47:02;;;;;;;6.90;2.30;;;18.30;99.90;;;;;;5034622;28;20064;-68
2022/07/29 09:49:28;;;;;;;11.30;2.92;;;18.30;99.90;;;;;;5054607;28;20041;-68
2022/07/29 09:52:00;;;;;;;12.75;2.97;;;18.30;99.90;;;;;;5052046;28;20098;-68
2022/07/29 09:54:27;;;;;;;7.45;2.72;;;18.10;99.90;;;;;;5052325;28;20548;-68
2022/07/29 09:56:54;;;;;;;8.93;3.13;;;18.20;99.90;;;;;;5049413;28;20054;-67
2022/07/29 09:59:22;;;;;;;9.32;2.75;;;18.20;99.90;;;;;;5051323;28;20131;-68
2022/07/29 10:01:49;;;;;;;8.93;2.58;;;18.20;99.90;;;;;;5067030;28;20032;-68
2022/07/29 10:04:15;;;;;;;8.75;2.70;;;18.20;99.90;;;;;;5048143;28;20146;-68
2022/07/29 10:07:01;;;;;;;5.35;2.50;;;18.00;99.90;;;;;;5050228;28;20131;-68
2022/07/29 10:09:27;;;;;;;8.65;2.88;;;18.10;99.90;;;;;;5059603;28;20028;-68
2022/07/29 10:12:13;;;;;;;9.02;2.60;;;18.10;99.90;;;;;;5057715;28;20037;-68
2022/07/29 10:14:40;;;;;;;5.75;2.25;;;18.10;99.90;;;;;;5034224;28;20041;-68
2022/07/29 10:17:07;;;;;;;6.20;2.10;;;18.20;99.90;;;;;;5041999;28;20064;-68
2022/07/29 10:19:34;;;;;;;5.90;2.38;;;18.20;99.90;;;;;;5048066;28;20120;-68
2022/07/29 10:22:02;;;;;;;8.18;2.45;;;18.20;99.90;;;;;;5034244;28;20045;-68
2022/07/29 10:24:30;;;;;;;5.72;2.40;;;18.30;99.90;;;;;;5034473;28;20037;-68
2022/07/29 10:26:56;;;;;;;6.78;2.30;;;18.20;99.90;;;;;;5051851;28;20120;-68
2022/07/29 10:29:23;;;;;;;6.82;2.63;;;18.20;99.90;;;;;;5051046;28;20045;-68
2022/07/29 10:32:14;;;;;;;7.35;2.15;;;18.20;99.90;;;;;;5045851;28;20045;-67
2022/07/29 10:34:46;;;;;;;5.68;2.40;;;18.20;99.90;;;;;;5068980;28;20071;-68
2022/07/29 10:37:23;;;;;;;6.28;2.53;;;18.30;99.90;;;;;;5045342;28;20033;-68
2022/07/29 10:43:25;;;;;;;7.90;2.50;;;18.40;99.90;;;;;;5047983;28;20093;-68
2022/07/29 10:46:00;;;;;;;6.50;2.63;;;18.50;99.90;;;;;;5044336;28;20119;-68
2022/07/29 10:48:26;;;;;;;5.43;2.47;;;18.50;99.90;;;;;;5043989;28;20072;-68
2022/07/29 10:51:00;;;;;;;7.10;2.58;;;18.60;99.90;;;;;;5040330;28;20475;-70
2022/07/29 10:53:46;;;;;;;6.90;2.60;;;18.50;99.90;;;;;;5049265;28;20052;-68
2022/07/29 10:56:28;;;;;;;5.20;2.47;;;18.50;99.90;;;;;;5061848;28;20060;-67
2022/07/29 10:59:24;;;;;;;5.50;2.50;;;18.60;99.90;;;;;;5048692;28;20095;-68
2022/07/29 11:01:53;;;;;;;5.78;2.47;;;18.60;99.90;;;;;;5044397;28;20033;-68
2022/07/29 11:04:44;;;;;;;7.43;2.50;;;18.50;99.90;;;;;;5037193;28;20046;-68
2022/07/29 11:07:10;;;;;;;5.85;2.55;;;18.60;99.90;;;;;;5056056;28;20505;-68
2022/07/29 11:09:36;;;;;;;6.70;2.25;;;18.70;99.90;;;;;;5054763;28;20123;-68
2022/07/29 11:12:02;;;;;;;9.95;2.58;;;18.70;99.90;;;;;;5046152;28;20124;-68
2022/07/29 11:15:01;;;;;;;7.35;2.80;;;18.80;99.90;;;;;;5059905;28;20048;-68
2022/07/29 11:17:27;;;;;;;7.70;3.13;;;18.90;99.90;;;;;;5063136;28;20396;-68
2022/07/29 11:20:31;;;;;;;6.25;2.83;;;18.90;99.90;;;;;;5065555;28;20144;-68
2022/07/29 11:22:56;;;;;;;10.38;3.30;;;19.00;99.90;;;;;;5062539;28;20124;-68
2022/07/29 11:25:22;;;;;;;9.40;3.10;;;19.10;99.90;;;;;;5063128;28;20123;-68
2022/07/29 11:27:48;;;;;;;6.93;3.20;;;19.20;99.90;;;;;;5067435;28;20493;-68
2022/07/29 11:30:13;;;;;;;7.43;3.08;;;19.30;99.90;;;;;;5052296;28;20037;-68
2022/07/29 11:32:44;;;;;;;6.93;2.80;;;19.30;99.90;;;;;;5050066;28;20083;-68
2022/07/29 11:35:20;;;;;;;8.38;2.72;;;19.40;99.90;;;;;;5027686;28;20075;-67
2022/07/29 11:37:46;;;;;;;6.65;2.80;;;19.50;99.90;;;;;;5056833;28;20042;-68
2022/07/29 11:40:13;;;;;;;6.82;2.78;;;19.50;99.90;;;;;;5052713;28;20032;-68
2022/07/29 11:42:41;;;;;;;10.00;3.53;;;19.80;99.90;;;;;;5068305;28;20048;-68
2022/07/29 11:45:09;;;;;;;8.55;2.72;;;20.00;99.90;;;;;;5071575;28;20047;-67
2022/07/29 11:47:49;;;;;;;7.88;3.00;;;20.30;99.90;;;;;;5068574;28;20241;-67
2022/07/29 11:50:17;;;;;;;6.85;3.22;;;20.40;99.90;;;;;;5040526;28;20041;-68
2022/07/29 11:52:48;;;;;;;7.00;2.85;;;20.50;99.90;;;;;;5047975;28;20499;-68
2022/07/29 11:55:15;;;;;;;6.80;3.00;;;20.40;99.90;;;;;;5053972;28;20097;-68
2022/07/29 11:57:48;;;;;;;6.88;2.80;;;20.40;99.90;;;;;;5044375;28;20521;-68
2022/07/29 12:00:23;;;;;;;7.22;2.90;;;20.30;99.90;;;;;;5037103;28;20036;-68
2022/07/29 12:02:48;;;;;;;6.40;3.25;;;20.50;99.90;;;;;;5073973;28;20044;-68
2022/07/29 12:05:14;;;;;;;6.22;3.22;;;20.50;99.90;;;;;;5056968;28;20040;-68
2022/07/29 12:07:40;;;;;;;10.23;3.22;;;20.50;99.90;;;;;;5044448;28;20048;-68
2022/07/29 12:10:07;;;;;;;7.55;2.78;;;20.70;99.90;;;;;;5059616;28;20156;-68
2022/07/29 12:12:34;;;;;;;9.07;3.47;;;20.80;99.90;;;;;;5050913;28;20155;-68
2022/07/29 12:15:14;;;;;;;8.10;2.90;;;20.80;99.90;;;;;;5040191;28;20059;-68
2022/07/29 12:17:40;;;;;;;7.80;3.17;;;20.80;99.90;;;;;;5032669;28;20049;-68
2022/07/29 12:20:06;;;;;;;8.02;3.00;;;20.70;99.90;;;;;;5053230;28;20037;-68
2022/07/29 12:22:38;;;;;;;9.63;3.33;;;20.70;99.90;;;;;;5053045;28;20037;-68
2022/07/29 12:25:10;;;;;;;7.20;2.88;;;20.70;99.90;;;;;;5028829;28;20033;-68
2022/07/29 12:27:38;;;;;;;8.00;3.35;;;20.70;99.90;;;;;;5017291;28;20371;-68
2022/07/29 12:30:09;;;;;;;9.48;3.40;;;20.70;99.90;;;;;;5016702;28;20124;-68
2022/07/29 12:32:39;;;;;;;6.47;2.60;;;20.60;99.90;;;;;;5050224;28;20560;-68
2022/07/29 12:35:11;;;;;;;8.27;2.70;;;20.70;99.90;;;;;;5052227;28;20421;-67
2022/07/29 12:37:39;;;;;;;5.82;2.60;;;20.70;99.90;;;;;;5053186;28;20037;-68
2022/07/29 12:40:06;;;;;;;7.07;2.92;;;20.80;99.90;;;;;;5051301;28;20041;-68
2022/07/29 12:42:31;;;;;;;8.05;2.85;;;20.80;99.90;;;;;;5046799;28;20531;-68
2022/07/29 12:44:57;;;;;;;9.48;3.03;;;20.90;99.90;;;;;;5054695;28;20072;-68
2022/07/29 12:47:23;;;;;;;9.18;2.95;;;21.10;99.90;;;;;;5067601;28;20072;-68
2022/07/29 12:49:50;;;;;;;8.82;2.92;;;21.30;99.90;;;;;;5055386;28;20047;-70
2022/07/29 12:52:31;;;;;;;10.55;3.72;;;21.40;99.90;;;;;;5053565;28;20044;-72
2022/07/29 12:54:57;;;;;;;7.97;2.45;;;21.40;99.90;;;;;;5053460;28;20128;-73
2022/07/29 12:57:23;;;;;;;7.70;2.88;;;21.50;99.90;;;;;;5051670;28;20040;-72
2022/07/29 13:00:10;;;;;;;8.90;3.00;;;21.50;99.90;;;;;;5050192;28;20124;-72
2022/07/29 13:02:37;;;;;;;9.00;2.50;;;21.60;99.90;;;;;;5060000;28;20111;-70